sensor_id;sensor_type;location;lat;lon;timestamp;P1;durP1;ratioP1;P2;durP2;ratioP2
13487;SDS011;6816;48.506;9.050;2024-02-23T00:02:29;1.80;;;0.30;;
13487;SDS011;6816;48.506;9.050;2024-02-23T00:05:29;0.17;;;0.10;;
13487;SDS011;6816;48.506;9.050;2024-02-23T00:08:30;0.30;;;0.10;;
13487;SDS011;6816;48.506;9.050;2024-02-23T00:11:31;0.00;;;0.00;;
13487;SDS011;6816;48.506;9.050;2024-02-23T00:14:33;0.20;;;0.10;;
13487;SDS011;6816;48.506;9.050;2024-02-23T00:17:36;0.10;;;0.10;;
13487;SDS011;6816;48.506;9.050;2024-02-23T00:20:37;0.10;;;0.00;;
13487;SDS011;6816;48.506;9.050;2024-02-23T00:23:38;0.00;;;0.00;;
13487;SDS011;6816;48.506;9.050;2024-02-23T00:26:38;0.00;;;0.00;;
13487;SDS011;6816;48.506;9.050;2024-02-23T00:29:39;0.00;;;0.00;;
13487;SDS011;6816;48.506;9.050;2024-02-23T00:32:40;0.00;;;0.00;;
13487;SDS011;6816;48.506;9.050;2024-02-23T00:35:41;0.20;;;0.00;;
13487;SDS011;6816;48.506;9.050;2024-02-23T00:38:42;0.77;;;0.10;;
13487;SDS011;6816;48.506;9.050;2024-02-23T00:41:42;1.67;;;0.20;;
13487;SDS011;6816;48.506;9.050;2024-02-23T00:44:43;0.53;;;0.30;;
13487;SDS011;6816;48.506;9.050;2024-02-23T00:47:44;1.43;;;0.20;;
13487;SDS011;6816;48.506;9.050;2024-02-23T00:50:46;0.20;;;0.00;;
13487;SDS011;6816;48.506;9.050;2024-02-23T00:53:47;1.40;;;0.20;;
13487;SDS011;6816;48.506;9.050;2024-02-23T00:56:48;0.40;;;0.10;;
13487;SDS011;6816;48.506;9.050;2024-02-23T00:59:48;0.70;;;0.13;;
13487;SDS011;6816;48.506;9.050;2024-02-23T01:02:49;1.13;;;0.10;;
13487;SDS011;6816;48.506;9.050;2024-02-23T01:05:49;0.83;;;0.10;;
13487;SDS011;6816;48.506;9.050;2024-02-23T01:08:50;0.57;;;0.20;;
13487;SDS011;6816;48.506;9.050;2024-02-23T01:11:51;0.10;;;0.10;;
13487;SDS011;6816;48.506;9.050;2024-02-23T01:14:51;0.23;;;0.20;;
13487;SDS011;6816;48.506;9.050;2024-02-23T01:17:52;0.73;;;0.10;;
13487;SDS011;6816;48.506;9.050;2024-02-23T01:20:52;1.33;;;0.20;;
13487;SDS011;6816;48.506;9.050;2024-02-23T01:27:47;0.47;;;0.20;;
13487;SDS011;6816;48.506;9.050;2024-02-23T01:30:48;0.10;;;0.10;;
13487;SDS011;6816;48.506;9.050;2024-02-23T01:33:55;0.60;;;0.10;;
13487;SDS011;6816;48.506;9.050;2024-02-23T01:36:55;0.00;;;0.00;;
13487;SDS011;6816;48.506;9.050;2024-02-23T01:39:56;0.80;;;0.20;;
13487;SDS011;6816;48.506;9.050;2024-02-23T01:43:06;0.33;;;0.10;;
13487;SDS011;6816;48.506;9.050;2024-02-23T01:46:06;0.20;;;0.10;;
13487;SDS011;6816;48.506;9.050;2024-02-23T01:49:08;0.10;;;0.03;;
13487;SDS011;6816;48.506;9.050;2024-02-23T01:52:09;0.67;;;0.10;;
13487;SDS011;6816;48.506;9.050;2024-02-23T01:55:10;0.10;;;0.10;;
13487;SDS011;6816;48.506;9.050;2024-02-23T02:02:08;0.20;;;0.10;;
13487;SDS011;6816;48.506;9.050;2024-02-23T02:05:08;0.57;;;0.00;;
13487;SDS011;6816;48.506;9.050;2024-02-23T02:08:25;0.00;;;0.00;;
13487;SDS011;6816;48.506;9.050;2024-02-23T02:11:45;0.17;;;0.10;;
13487;SDS011;6816;48.506;9.050;2024-02-23T02:14:47;0.80;;;0.10;;
13487;SDS011;6816;48.506;9.050;2024-02-23T02:17:47;0.00;;;0.00;;
13487;SDS011;6816;48.506;9.050;2024-02-23T02:20:53;0.80;;;0.27;;
13487;SDS011;6816;48.506;9.050;2024-02-23T02:23:55;0.13;;;0.13;;
13487;SDS011;6816;48.506;9.050;2024-02-23T02:26:56;0.40;;;0.10;;
13487;SDS011;6816;48.506;9.050;2024-02-23T02:29:57;0.10;;;0.10;;
13487;SDS011;6816;48.506;9.050;2024-02-23T02:32:57;0.37;;;0.10;;
13487;SDS011;6816;48.506;9.050;2024-02-23T02:35:58;0.00;;;0.00;;
13487;SDS011;6816;48.506;9.050;2024-02-23T02:38:59;0.10;;;0.10;;
13487;SDS011;6816;48.506;9.050;2024-02-23T02:41:59;0.10;;;0.10;;
13487;SDS011;6816;48.506;9.050;2024-02-23T02:45:00;0.50;;;0.10;;
13487;SDS011;6816;48.506;9.050;2024-02-23T02:48:01;0.10;;;0.10;;
13487;SDS011;6816;48.506;9.050;2024-02-23T02:51:03;0.27;;;0.10;;
13487;SDS011;6816;48.506;9.050;2024-02-23T02:54:03;0.10;;;0.10;;
13487;SDS011;6816;48.506;9.050;2024-02-23T02:57:04;0.20;;;0.10;;
13487;SDS011;6816;48.506;9.050;2024-02-23T03:00:05;0.83;;;0.17;;
13487;SDS011;6816;48.506;9.050;2024-02-23T03:03:09;0.70;;;0.10;;
13487;SDS011;6816;48.506;9.050;2024-02-23T03:06:10;0.40;;;0.07;;
13487;SDS011;6816;48.506;9.050;2024-02-23T03:09:11;1.13;;;0.10;;
13487;SDS011;6816;48.506;9.050;2024-02-23T03:12:11;0.30;;;0.20;;
13487;SDS011;6816;48.506;9.050;2024-02-23T03:15:12;0.00;;;0.00;;
13487;SDS011;6816;48.506;9.050;2024-02-23T03:18:12;0.60;;;0.10;;
13487;SDS011;6816;48.506;9.050;2024-02-23T03:21:14;0.23;;;0.10;;
13487;SDS011;6816;48.506;9.050;2024-02-23T03:24:15;1.17;;;0.17;;
13487;SDS011;6816;48.506;9.050;2024-02-23T03:27:16;0.10;;;0.00;;
13487;SDS011;6816;48.506;9.050;2024-02-23T03:30:17;0.77;;;0.20;;
13487;SDS011;6816;48.506;9.050;2024-02-23T03:33:17;0.87;;;0.20;;
13487;SDS011;6816;48.506;9.050;2024-02-23T03:36:18;0.10;;;0.10;;
13487;SDS011;6816;48.506;9.050;2024-02-23T03:39:18;0.73;;;0.20;;
13487;SDS011;6816;48.506;9.050;2024-02-23T03:42:19;0.10;;;0.00;;
13487;SDS011;6816;48.506;9.050;2024-02-23T03:45:19;0.40;;;0.10;;
13487;SDS011;6816;48.506;9.050;2024-02-23T03:48:20;0.30;;;0.00;;
13487;SDS011;6816;48.506;9.050;2024-02-23T03:51:21;0.20;;;0.13;;
13487;SDS011;6816;48.506;9.050;2024-02-23T03:54:21;2.10;;;1.03;;
13487;SDS011;6816;48.506;9.050;2024-02-23T03:57:22;0.10;;;0.10;;
13487;SDS011;6816;48.506;9.050;2024-02-23T04:00:22;0.27;;;0.20;;
13487;SDS011;6816;48.506;9.050;2024-02-23T04:03:23;0.17;;;0.00;;
13487;SDS011;6816;48.506;9.050;2024-02-23T04:06:24;0.73;;;0.20;;
13487;SDS011;6816;48.506;9.050;2024-02-23T04:09:24;1.53;;;0.30;;
13487;SDS011;6816;48.506;9.050;2024-02-23T04:12:25;0.60;;;0.10;;
13487;SDS011;6816;48.506;9.050;2024-02-23T04:15:25;0.87;;;0.13;;
13487;SDS011;6816;48.506;9.050;2024-02-23T04:18:26;0.73;;;0.30;;
13487;SDS011;6816;48.506;9.050;2024-02-23T04:21:26;0.70;;;0.20;;
13487;SDS011;6816;48.506;9.050;2024-02-23T04:24:27;0.73;;;0.30;;
13487;SDS011;6816;48.506;9.050;2024-02-23T04:27:27;0.30;;;0.17;;
13487;SDS011;6816;48.506;9.050;2024-02-23T04:30:28;0.30;;;0.10;;
13487;SDS011;6816;48.506;9.050;2024-02-23T04:33:28;0.13;;;0.10;;
13487;SDS011;6816;48.506;9.050;2024-02-23T04:36:29;0.63;;;0.10;;
13487;SDS011;6816;48.506;9.050;2024-02-23T04:39:30;0.50;;;0.20;;
13487;SDS011;6816;48.506;9.050;2024-02-23T04:42:30;0.67;;;0.17;;
13487;SDS011;6816;48.506;9.050;2024-02-23T04:45:31;0.70;;;0.20;;
13487;SDS011;6816;48.506;9.050;2024-02-23T04:48:31;0.93;;;0.33;;
13487;SDS011;6816;48.506;9.050;2024-02-23T04:51:32;0.50;;;0.20;;
13487;SDS011;6816;48.506;9.050;2024-02-23T04:54:33;1.13;;;0.30;;
13487;SDS011;6816;48.506;9.050;2024-02-23T04:57:36;0.40;;;0.17;;
13487;SDS011;6816;48.506;9.050;2024-02-23T05:00:37;0.77;;;0.20;;
13487;SDS011;6816;48.506;9.050;2024-02-23T05:03:38;0.43;;;0.10;;
13487;SDS011;6816;48.506;9.050;2024-02-23T05:06:38;2.43;;;0.30;;
13487;SDS011;6816;48.506;9.050;2024-02-23T05:09:39;0.80;;;0.20;;
13487;SDS011;6816;48.506;9.050;2024-02-23T05:12:40;0.17;;;0.10;;
13487;SDS011;6816;48.506;9.050;2024-02-23T05:15:41;0.20;;;0.13;;
13487;SDS011;6816;48.506;9.050;2024-02-23T05:18:41;0.30;;;0.30;;
13487;SDS011;6816;48.506;9.050;2024-02-23T05:21:43;0.83;;;0.40;;
13487;SDS011;6816;48.506;9.050;2024-02-23T05:24:44;0.43;;;0.23;;
13487;SDS011;6816;48.506;9.050;2024-02-23T05:27:45;0.90;;;0.27;;
13487;SDS011;6816;48.506;9.050;2024-02-23T05:30:46;0.43;;;0.37;;
13487;SDS011;6816;48.506;9.050;2024-02-23T05:33:46;0.50;;;0.30;;
13487;SDS011;6816;48.506;9.050;2024-02-23T05:36:47;0.33;;;0.20;;
13487;SDS011;6816;48.506;9.050;2024-02-23T05:39:48;2.40;;;0.40;;
13487;SDS011;6816;48.506;9.050;2024-02-23T05:42:48;0.70;;;0.27;;
13487;SDS011;6816;48.506;9.050;2024-02-23T05:45:49;0.63;;;0.30;;
13487;SDS011;6816;48.506;9.050;2024-02-23T05:48:49;0.23;;;0.20;;
13487;SDS011;6816;48.506;9.050;2024-02-23T05:51:50;1.13;;;0.30;;
13487;SDS011;6816;48.506;9.050;2024-02-23T05:54:51;2.10;;;0.30;;
13487;SDS011;6816;48.506;9.050;2024-02-23T05:57:53;0.37;;;0.10;;
13487;SDS011;6816;48.506;9.050;2024-02-23T06:00:54;0.30;;;0.20;;
13487;SDS011;6816;48.506;9.050;2024-02-23T06:03:54;0.50;;;0.20;;
13487;SDS011;6816;48.506;9.050;2024-02-23T06:06:56;1.50;;;0.20;;
13487;SDS011;6816;48.506;9.050;2024-02-23T06:09:56;0.60;;;0.40;;
13487;SDS011;6816;48.506;9.050;2024-02-23T06:12:57;1.13;;;0.50;;
13487;SDS011;6816;48.506;9.050;2024-02-23T06:15:57;0.50;;;0.27;;
13487;SDS011;6816;48.506;9.050;2024-02-23T06:18:59;1.73;;;0.33;;
13487;SDS011;6816;48.506;9.050;2024-02-23T06:21:59;1.53;;;0.50;;
13487;SDS011;6816;48.506;9.050;2024-02-23T06:25:00;0.23;;;0.20;;
13487;SDS011;6816;48.506;9.050;2024-02-23T06:28:01;1.23;;;0.50;;
13487;SDS011;6816;48.506;9.050;2024-02-23T06:31:01;0.90;;;0.30;;
13487;SDS011;6816;48.506;9.050;2024-02-23T06:34:04;0.63;;;0.20;;
13487;SDS011;6816;48.506;9.050;2024-02-23T06:37:05;0.47;;;0.30;;
13487;SDS011;6816;48.506;9.050;2024-02-23T06:40:05;0.40;;;0.20;;
13487;SDS011;6816;48.506;9.050;2024-02-23T06:43:07;2.50;;;0.20;;
13487;SDS011;6816;48.506;9.050;2024-02-23T06:46:08;1.83;;;0.40;;
13487;SDS011;6816;48.506;9.050;2024-02-23T06:49:09;0.67;;;0.30;;
13487;SDS011;6816;48.506;9.050;2024-02-23T06:52:10;0.23;;;0.20;;
13487;SDS011;6816;48.506;9.050;2024-02-23T06:55:11;0.70;;;0.30;;
13487;SDS011;6816;48.506;9.050;2024-02-23T06:58:11;0.60;;;0.30;;
13487;SDS011;6816;48.506;9.050;2024-02-23T07:01:14;1.13;;;0.30;;
13487;SDS011;6816;48.506;9.050;2024-02-23T07:04:15;0.70;;;0.30;;
13487;SDS011;6816;48.506;9.050;2024-02-23T07:07:15;0.23;;;0.20;;
13487;SDS011;6816;48.506;9.050;2024-02-23T07:10:16;2.23;;;0.70;;
13487;SDS011;6816;48.506;9.050;2024-02-23T07:13:18;0.20;;;0.20;;
13487;SDS011;6816;48.506;9.050;2024-02-23T07:16:19;2.40;;;0.27;;
13487;SDS011;6816;48.506;9.050;2024-02-23T07:19:20;0.70;;;0.30;;
13487;SDS011;6816;48.506;9.050;2024-02-23T07:22:21;0.73;;;0.30;;
13487;SDS011;6816;48.506;9.050;2024-02-23T07:25:21;0.87;;;0.40;;
13487;SDS011;6816;48.506;9.050;2024-02-23T07:28:22;0.67;;;0.33;;
13487;SDS011;6816;48.506;9.050;2024-02-23T07:31:23;0.87;;;0.30;;
13487;SDS011;6816;48.506;9.050;2024-02-23T07:34:23;1.13;;;0.30;;
13487;SDS011;6816;48.506;9.050;2024-02-23T07:37:25;2.13;;;0.60;;
13487;SDS011;6816;48.506;9.050;2024-02-23T07:40:27;3.17;;;0.50;;
13487;SDS011;6816;48.506;9.050;2024-02-23T07:43:27;1.83;;;0.33;;
13487;SDS011;6816;48.506;9.050;2024-02-23T07:46:29;1.23;;;0.30;;
13487;SDS011;6816;48.506;9.050;2024-02-23T07:49:29;1.70;;;0.60;;
13487;SDS011;6816;48.506;9.050;2024-02-23T07:52:30;0.93;;;0.53;;
13487;SDS011;6816;48.506;9.050;2024-02-23T07:55:31;1.43;;;0.67;;
13487;SDS011;6816;48.506;9.050;2024-02-23T07:58:32;1.20;;;0.70;;
13487;SDS011;6816;48.506;9.050;2024-02-23T08:01:33;0.93;;;0.70;;
13487;SDS011;6816;48.506;9.050;2024-02-23T08:04:34;0.50;;;0.43;;
13487;SDS011;6816;48.506;9.050;2024-02-23T08:07:34;0.40;;;0.20;;
13487;SDS011;6816;48.506;9.050;2024-02-23T08:10:35;1.03;;;0.40;;
13487;SDS011;6816;48.506;9.050;2024-02-23T08:13:36;0.70;;;0.50;;
13487;SDS011;6816;48.506;9.050;2024-02-23T08:16:36;3.00;;;0.50;;
13487;SDS011;6816;48.506;9.050;2024-02-23T08:19:37;1.00;;;0.50;;
13487;SDS011;6816;48.506;9.050;2024-02-23T08:22:38;0.97;;;0.50;;
13487;SDS011;6816;48.506;9.050;2024-02-23T08:25:39;2.57;;;1.00;;
13487;SDS011;6816;48.506;9.050;2024-02-23T08:28:40;4.90;;;0.90;;
13487;SDS011;6816;48.506;9.050;2024-02-23T08:31:40;0.77;;;0.50;;
13487;SDS011;6816;48.506;9.050;2024-02-23T08:34:41;0.60;;;0.50;;
13487;SDS011;6816;48.506;9.050;2024-02-23T08:37:41;1.30;;;0.60;;
13487;SDS011;6816;48.506;9.050;2024-02-23T08:40:42;0.70;;;0.63;;
13487;SDS011;6816;48.506;9.050;2024-02-23T08:43:45;1.57;;;0.70;;
13487;SDS011;6816;48.506;9.050;2024-02-23T08:46:46;2.60;;;0.93;;
13487;SDS011;6816;48.506;9.050;2024-02-23T08:49:48;1.03;;;0.60;;
13487;SDS011;6816;48.506;9.050;2024-02-23T08:52:48;3.07;;;0.90;;
13487;SDS011;6816;48.506;9.050;2024-02-23T08:55:49;2.63;;;1.03;;
13487;SDS011;6816;48.506;9.050;2024-02-23T08:58:50;1.40;;;0.50;;
13487;SDS011;6816;48.506;9.050;2024-02-23T09:01:50;0.97;;;0.70;;
13487;SDS011;6816;48.506;9.050;2024-02-23T09:04:51;0.80;;;0.53;;
13487;SDS011;6816;48.506;9.050;2024-02-23T09:07:52;1.57;;;0.60;;
13487;SDS011;6816;48.506;9.050;2024-02-23T09:10:53;1.27;;;0.50;;
13487;SDS011;6816;48.506;9.050;2024-02-23T09:13:53;1.33;;;0.57;;
13487;SDS011;6816;48.506;9.050;2024-02-23T09:16:54;3.00;;;0.90;;
13487;SDS011;6816;48.506;9.050;2024-02-23T09:19:55;1.47;;;0.70;;
13487;SDS011;6816;48.506;9.050;2024-02-23T09:22:55;2.17;;;0.60;;
13487;SDS011;6816;48.506;9.050;2024-02-23T09:25:56;1.73;;;0.63;;
13487;SDS011;6816;48.506;9.050;2024-02-23T09:28:57;2.57;;;0.93;;
13487;SDS011;6816;48.506;9.050;2024-02-23T09:31:58;2.20;;;0.77;;
13487;SDS011;6816;48.506;9.050;2024-02-23T09:34:58;2.27;;;0.60;;
13487;SDS011;6816;48.506;9.050;2024-02-23T09:37:59;1.40;;;0.70;;
13487;SDS011;6816;48.506;9.050;2024-02-23T09:40:59;1.60;;;0.63;;
13487;SDS011;6816;48.506;9.050;2024-02-23T09:44:01;1.53;;;0.67;;
13487;SDS011;6816;48.506;9.050;2024-02-23T09:47:05;1.50;;;0.73;;
13487;SDS011;6816;48.506;9.050;2024-02-23T09:50:11;1.23;;;0.40;;
13487;SDS011;6816;48.506;9.050;2024-02-23T09:53:13;1.23;;;0.50;;
13487;SDS011;6816;48.506;9.050;2024-02-23T09:56:14;2.57;;;0.90;;
13487;SDS011;6816;48.506;9.050;2024-02-23T09:59:17;1.63;;;0.60;;
13487;SDS011;6816;48.506;9.050;2024-02-23T10:02:18;1.57;;;0.60;;
13487;SDS011;6816;48.506;9.050;2024-02-23T10:05:19;3.30;;;0.60;;
13487;SDS011;6816;48.506;9.050;2024-02-23T10:08:23;2.07;;;0.50;;
13487;SDS011;6816;48.506;9.050;2024-02-23T10:11:24;1.43;;;0.70;;
13487;SDS011;6816;48.506;9.050;2024-02-23T10:14:27;1.67;;;0.50;;
13487;SDS011;6816;48.506;9.050;2024-02-23T10:17:32;1.10;;;0.40;;
13487;SDS011;6816;48.506;9.050;2024-02-23T10:20:33;1.40;;;0.47;;
13487;SDS011;6816;48.506;9.050;2024-02-23T10:23:34;2.13;;;0.47;;
13487;SDS011;6816;48.506;9.050;2024-02-23T10:26:35;3.80;;;0.57;;
13487;SDS011;6816;48.506;9.050;2024-02-23T10:29:36;1.80;;;0.80;;
13487;SDS011;6816;48.506;9.050;2024-02-23T10:32:38;1.00;;;0.60;;
13487;SDS011;6816;48.506;9.050;2024-02-23T10:35:40;0.93;;;0.50;;
13487;SDS011;6816;48.506;9.050;2024-02-23T10:38:42;2.50;;;0.70;;
13487;SDS011;6816;48.506;9.050;2024-02-23T10:42:00;1.17;;;0.53;;
13487;SDS011;6816;48.506;9.050;2024-02-23T10:45:04;1.70;;;0.57;;
13487;SDS011;6816;48.506;9.050;2024-02-23T10:48:07;1.17;;;0.40;;
13487;SDS011;6816;48.506;9.050;2024-02-23T10:51:10;2.57;;;0.43;;
13487;SDS011;6816;48.506;9.050;2024-02-23T10:54:13;1.17;;;0.40;;
13487;SDS011;6816;48.506;9.050;2024-02-23T10:57:17;1.87;;;0.40;;
13487;SDS011;6816;48.506;9.050;2024-02-23T11:00:18;2.27;;;0.70;;
13487;SDS011;6816;48.506;9.050;2024-02-23T11:03:22;3.33;;;0.50;;
13487;SDS011;6816;48.506;9.050;2024-02-23T11:06:27;3.47;;;0.70;;
13487;SDS011;6816;48.506;9.050;2024-02-23T11:09:28;1.00;;;0.50;;
13487;SDS011;6816;48.506;9.050;2024-02-23T11:12:31;2.77;;;0.60;;
13487;SDS011;6816;48.506;9.050;2024-02-23T11:15:33;1.33;;;0.67;;
13487;SDS011;6816;48.506;9.050;2024-02-23T11:18:40;2.20;;;0.57;;
13487;SDS011;6816;48.506;9.050;2024-02-23T11:21:41;1.63;;;0.50;;
13487;SDS011;6816;48.506;9.050;2024-02-23T11:24:42;2.07;;;0.57;;
13487;SDS011;6816;48.506;9.050;2024-02-23T11:27:49;1.27;;;0.50;;
13487;SDS011;6816;48.506;9.050;2024-02-23T11:30:50;3.20;;;0.80;;
13487;SDS011;6816;48.506;9.050;2024-02-23T11:33:52;3.70;;;0.93;;
13487;SDS011;6816;48.506;9.050;2024-02-23T11:36:54;1.87;;;0.60;;
13487;SDS011;6816;48.506;9.050;2024-02-23T11:39:56;1.83;;;0.43;;
13487;SDS011;6816;48.506;9.050;2024-02-23T11:42:57;2.60;;;0.70;;
13487;SDS011;6816;48.506;9.050;2024-02-23T11:46:01;2.67;;;0.57;;
13487;SDS011;6816;48.506;9.050;2024-02-23T11:49:02;1.27;;;0.60;;
13487;SDS011;6816;48.506;9.050;2024-02-23T11:52:02;4.07;;;0.70;;
13487;SDS011;6816;48.506;9.050;2024-02-23T11:55:04;1.77;;;0.70;;
13487;SDS011;6816;48.506;9.050;2024-02-23T11:58:05;2.50;;;0.77;;
13487;SDS011;6816;48.506;9.050;2024-02-23T12:01:07;1.90;;;0.57;;
13487;SDS011;6816;48.506;9.050;2024-02-23T12:04:07;3.73;;;0.97;;
13487;SDS011;6816;48.506;9.050;2024-02-23T12:07:08;2.63;;;1.00;;
13487;SDS011;6816;48.506;9.050;2024-02-23T12:10:09;1.03;;;0.40;;
13487;SDS011;6816;48.506;9.050;2024-02-23T12:13:11;2.93;;;0.90;;
13487;SDS011;6816;48.506;9.050;2024-02-23T12:16:11;1.90;;;0.63;;
13487;SDS011;6816;48.506;9.050;2024-02-23T12:19:12;3.53;;;1.03;;
13487;SDS011;6816;48.506;9.050;2024-02-23T12:22:15;1.40;;;0.53;;
13487;SDS011;6816;48.506;9.050;2024-02-23T12:25:16;2.70;;;0.90;;
13487;SDS011;6816;48.506;9.050;2024-02-23T12:28:18;4.20;;;0.60;;
13487;SDS011;6816;48.506;9.050;2024-02-23T12:31:23;2.47;;;0.70;;
13487;SDS011;6816;48.506;9.050;2024-02-23T12:34:25;2.53;;;0.60;;
13487;SDS011;6816;48.506;9.050;2024-02-23T12:37:26;2.73;;;0.63;;
13487;SDS011;6816;48.506;9.050;2024-02-23T12:40:26;4.77;;;0.93;;
13487;SDS011;6816;48.506;9.050;2024-02-23T12:43:27;2.07;;;0.77;;
13487;SDS011;6816;48.506;9.050;2024-02-23T12:46:28;2.77;;;1.07;;
13487;SDS011;6816;48.506;9.050;2024-02-23T12:49:28;1.87;;;0.60;;
13487;SDS011;6816;48.506;9.050;2024-02-23T12:52:29;3.03;;;0.90;;
13487;SDS011;6816;48.506;9.050;2024-02-23T12:55:30;1.40;;;0.60;;
13487;SDS011;6816;48.506;9.050;2024-02-23T12:58:37;2.30;;;0.80;;
13487;SDS011;6816;48.506;9.050;2024-02-23T13:01:40;3.33;;;0.80;;
13487;SDS011;6816;48.506;9.050;2024-02-23T13:04:40;3.37;;;1.23;;
13487;SDS011;6816;48.506;9.050;2024-02-23T13:07:43;2.50;;;1.00;;
13487;SDS011;6816;48.506;9.050;2024-02-23T13:10:46;2.63;;;0.60;;
13487;SDS011;6816;48.506;9.050;2024-02-23T13:13:46;2.97;;;0.80;;
13487;SDS011;6816;48.506;9.050;2024-02-23T13:16:47;2.80;;;1.20;;
13487;SDS011;6816;48.506;9.050;2024-02-23T13:19:47;4.30;;;0.83;;
13487;SDS011;6816;48.506;9.050;2024-02-23T13:22:49;2.00;;;0.60;;
13487;SDS011;6816;48.506;9.050;2024-02-23T13:25:50;1.80;;;0.70;;
13487;SDS011;6816;48.506;9.050;2024-02-23T13:28:50;2.30;;;0.63;;
13487;SDS011;6816;48.506;9.050;2024-02-23T13:31:51;4.40;;;1.00;;
13487;SDS011;6816;48.506;9.050;2024-02-23T13:34:52;2.40;;;0.83;;
13487;SDS011;6816;48.506;9.050;2024-02-23T13:37:53;2.27;;;0.77;;
13487;SDS011;6816;48.506;9.050;2024-02-23T13:40:53;1.93;;;0.63;;
13487;SDS011;6816;48.506;9.050;2024-02-23T13:43:54;0.87;;;0.63;;
13487;SDS011;6816;48.506;9.050;2024-02-23T13:46:55;1.83;;;0.70;;
13487;SDS011;6816;48.506;9.050;2024-02-23T13:49:56;1.77;;;0.50;;
13487;SDS011;6816;48.506;9.050;2024-02-23T13:52:57;3.47;;;0.70;;
13487;SDS011;6816;48.506;9.050;2024-02-23T13:55:58;1.67;;;1.03;;
13487;SDS011;6816;48.506;9.050;2024-02-23T13:59:00;2.33;;;0.50;;
13487;SDS011;6816;48.506;9.050;2024-02-23T14:02:01;2.10;;;0.80;;
13487;SDS011;6816;48.506;9.050;2024-02-23T14:05:01;1.93;;;0.63;;
13487;SDS011;6816;48.506;9.050;2024-02-23T14:08:03;2.30;;;0.60;;
13487;SDS011;6816;48.506;9.050;2024-02-23T14:11:04;3.00;;;0.83;;
13487;SDS011;6816;48.506;9.050;2024-02-23T14:14:07;1.60;;;0.70;;
13487;SDS011;6816;48.506;9.050;2024-02-23T14:17:08;1.93;;;0.60;;
13487;SDS011;6816;48.506;9.050;2024-02-23T14:20:09;1.70;;;0.53;;
13487;SDS011;6816;48.506;9.050;2024-02-23T14:23:10;1.40;;;0.60;;
13487;SDS011;6816;48.506;9.050;2024-02-23T14:26:10;1.30;;;0.50;;
13487;SDS011;6816;48.506;9.050;2024-02-23T14:29:12;1.93;;;0.70;;
13487;SDS011;6816;48.506;9.050;2024-02-23T14:32:15;3.40;;;0.60;;
13487;SDS011;6816;48.506;9.050;2024-02-23T14:35:17;1.73;;;0.60;;
13487;SDS011;6816;48.506;9.050;2024-02-23T14:38:18;1.50;;;0.50;;
13487;SDS011;6816;48.506;9.050;2024-02-23T14:41:18;2.13;;;0.47;;
13487;SDS011;6816;48.506;9.050;2024-02-23T14:44:19;2.33;;;0.80;;
13487;SDS011;6816;48.506;9.050;2024-02-23T14:47:19;1.90;;;0.63;;
13487;SDS011;6816;48.506;9.050;2024-02-23T14:50:20;2.03;;;0.70;;
13487;SDS011;6816;48.506;9.050;2024-02-23T14:53:21;1.67;;;0.70;;
13487;SDS011;6816;48.506;9.050;2024-02-23T14:56:21;1.27;;;0.50;;
13487;SDS011;6816;48.506;9.050;2024-02-23T14:59:22;1.43;;;0.57;;
13487;SDS011;6816;48.506;9.050;2024-02-23T15:02:22;1.60;;;0.80;;
13487;SDS011;6816;48.506;9.050;2024-02-23T15:05:23;4.63;;;0.83;;
13487;SDS011;6816;48.506;9.050;2024-02-23T15:08:24;3.17;;;0.60;;
13487;SDS011;6816;48.506;9.050;2024-02-23T15:11:24;2.37;;;0.60;;
13487;SDS011;6816;48.506;9.050;2024-02-23T15:14:25;4.70;;;0.83;;
13487;SDS011;6816;48.506;9.050;2024-02-23T15:17:25;1.77;;;0.67;;
13487;SDS011;6816;48.506;9.050;2024-02-23T15:20:26;1.43;;;0.60;;
13487;SDS011;6816;48.506;9.050;2024-02-23T15:23:27;4.77;;;0.80;;
13487;SDS011;6816;48.506;9.050;2024-02-23T15:26:27;2.40;;;0.60;;
13487;SDS011;6816;48.506;9.050;2024-02-23T15:29:30;1.63;;;0.60;;
13487;SDS011;6816;48.506;9.050;2024-02-23T15:32:31;1.77;;;0.93;;
13487;SDS011;6816;48.506;9.050;2024-02-23T15:35:32;4.07;;;0.80;;
13487;SDS011;6816;48.506;9.050;2024-02-23T15:38:34;3.43;;;1.47;;
13487;SDS011;6816;48.506;9.050;2024-02-23T15:41:36;10.43;;;4.57;;
13487;SDS011;6816;48.506;9.050;2024-02-23T15:44:36;8.77;;;2.60;;
13487;SDS011;6816;48.506;9.050;2024-02-23T15:47:37;4.57;;;2.63;;
13487;SDS011;6816;48.506;9.050;2024-02-23T15:50:38;4.40;;;1.90;;
13487;SDS011;6816;48.506;9.050;2024-02-23T15:53:38;3.80;;;2.47;;
13487;SDS011;6816;48.506;9.050;2024-02-23T15:56:39;4.00;;;2.20;;
13487;SDS011;6816;48.506;9.050;2024-02-23T15:59:40;3.57;;;1.50;;
13487;SDS011;6816;48.506;9.050;2024-02-23T16:02:40;3.13;;;1.20;;
13487;SDS011;6816;48.506;9.050;2024-02-23T16:05:41;3.77;;;2.17;;
13487;SDS011;6816;48.506;9.050;2024-02-23T16:08:43;4.93;;;1.80;;
13487;SDS011;6816;48.506;9.050;2024-02-23T16:11:46;5.17;;;1.10;;
13487;SDS011;6816;48.506;9.050;2024-02-23T16:14:47;2.27;;;1.30;;
13487;SDS011;6816;48.506;9.050;2024-02-23T16:17:47;3.53;;;1.50;;
13487;SDS011;6816;48.506;9.050;2024-02-23T16:20:48;2.57;;;1.47;;
13487;SDS011;6816;48.506;9.050;2024-02-23T16:23:49;2.70;;;1.47;;
13487;SDS011;6816;48.506;9.050;2024-02-23T16:26:49;2.60;;;1.20;;
13487;SDS011;6816;48.506;9.050;2024-02-23T16:29:50;3.10;;;1.17;;
13487;SDS011;6816;48.506;9.050;2024-02-23T16:32:50;3.77;;;0.87;;
13487;SDS011;6816;48.506;9.050;2024-02-23T16:35:53;2.00;;;0.87;;
13487;SDS011;6816;48.506;9.050;2024-02-23T16:38:57;2.73;;;0.90;;
13487;SDS011;6816;48.506;9.050;2024-02-23T16:41:57;2.83;;;0.73;;
13487;SDS011;6816;48.506;9.050;2024-02-23T16:44:58;2.60;;;0.90;;
13487;SDS011;6816;48.506;9.050;2024-02-23T16:47:59;2.43;;;0.90;;
13487;SDS011;6816;48.506;9.050;2024-02-23T16:51:01;2.63;;;0.80;;
13487;SDS011;6816;48.506;9.050;2024-02-23T16:54:01;1.57;;;0.70;;
13487;SDS011;6816;48.506;9.050;2024-02-23T16:57:02;2.07;;;0.63;;
13487;SDS011;6816;48.506;9.050;2024-02-23T17:00:03;1.60;;;0.70;;
13487;SDS011;6816;48.506;9.050;2024-02-23T17:03:04;4.10;;;1.23;;
13487;SDS011;6816;48.506;9.050;2024-02-23T17:06:04;2.00;;;0.60;;
13487;SDS011;6816;48.506;9.050;2024-02-23T17:09:05;2.10;;;0.70;;
13487;SDS011;6816;48.506;9.050;2024-02-23T17:12:09;3.30;;;0.90;;
13487;SDS011;6816;48.506;9.050;2024-02-23T17:15:10;5.27;;;1.10;;
13487;SDS011;6816;48.506;9.050;2024-02-23T17:18:11;3.47;;;0.70;;
13487;SDS011;6816;48.506;9.050;2024-02-23T17:21:11;1.83;;;0.77;;
13487;SDS011;6816;48.506;9.050;2024-02-23T17:24:12;1.57;;;0.70;;
13487;SDS011;6816;48.506;9.050;2024-02-23T17:27:13;3.73;;;0.90;;
13487;SDS011;6816;48.506;9.050;2024-02-23T17:30:14;2.07;;;1.07;;
13487;SDS011;6816;48.506;9.050;2024-02-23T17:33:14;4.57;;;1.70;;
13487;SDS011;6816;48.506;9.050;2024-02-23T17:36:15;2.00;;;1.07;;
13487;SDS011;6816;48.506;9.050;2024-02-23T17:39:16;3.80;;;1.40;;
13487;SDS011;6816;48.506;9.050;2024-02-23T17:42:17;2.80;;;1.07;;
13487;SDS011;6816;48.506;9.050;2024-02-23T17:45:17;1.13;;;0.63;;
13487;SDS011;6816;48.506;9.050;2024-02-23T17:48:19;3.37;;;1.10;;
13487;SDS011;6816;48.506;9.050;2024-02-23T17:51:19;2.30;;;0.80;;
13487;SDS011;6816;48.506;9.050;2024-02-23T17:54:20;2.20;;;0.80;;
13487;SDS011;6816;48.506;9.050;2024-02-23T17:57:20;2.03;;;0.87;;
13487;SDS011;6816;48.506;9.050;2024-02-23T18:00:21;2.00;;;0.97;;
13487;SDS011;6816;48.506;9.050;2024-02-23T18:03:22;1.30;;;0.70;;
13487;SDS011;6816;48.506;9.050;2024-02-23T18:06:22;1.10;;;0.40;;
13487;SDS011;6816;48.506;9.050;2024-02-23T18:09:23;1.57;;;0.70;;
13487;SDS011;6816;48.506;9.050;2024-02-23T18:12:24;3.00;;;0.57;;
13487;SDS011;6816;48.506;9.050;2024-02-23T18:15:25;1.13;;;0.50;;
13487;SDS011;6816;48.506;9.050;2024-02-23T18:18:25;2.17;;;0.70;;
13487;SDS011;6816;48.506;9.050;2024-02-23T18:21:29;2.13;;;0.70;;
13487;SDS011;6816;48.506;9.050;2024-02-23T18:24:33;2.13;;;0.70;;
13487;SDS011;6816;48.506;9.050;2024-02-23T18:27:33;1.53;;;0.63;;
13487;SDS011;6816;48.506;9.050;2024-02-23T18:30:34;2.67;;;0.70;;
13487;SDS011;6816;48.506;9.050;2024-02-23T18:33:34;1.40;;;0.63;;
13487;SDS011;6816;48.506;9.050;2024-02-23T18:36:35;1.00;;;0.60;;